Lampasas, TX (76550)

3:41 PM CDT on July 05, 2015 (GMT -0500)
Lampasas | | Change Station
CLOSE
Current Station
Airport
Location: Lampasas,
Elevation: 1214 ft
Nearby Weather Stations

Elev 1214 ft 31.11 °N, 98.20 °W | Updated 6 minutes ago

Scattered Clouds
Scattered Clouds
92 °F
Feels Like 99 °F
N
15
Wind Variable Wind from South
Gusts 20 mph

Today
High -- | Low -- °F
--% Chance of Precip.
Yesterday
High -- | Low -- °F
Precip. -- in
6:34 AM 8:40 PM
Waning Gibbous, 82% visible
Pressure 29.99 in
Visibility 10.0 miles
Clouds Scattered Clouds 5500 ft
Scattered Clouds 7000 ft
Heat Index 99 °F
Dew Point 72 °F
Humidity 52%
Rainfall 0.00 in
Snow Depth Not available.
UV 8 out of 12
Pollen 2.30 out of 12
Air Quality Not available.
Flu Activity Not available.
METAR KLZZ 052035Z AUTO 17013G17KT 10SM SCT055 SCT070 33/22 A2999 RMK AO2 T03310220

More Conditions Fewer Conditions

Pressure 29.99 in
Visibility 10.0 miles
Clouds Scattered Clouds 5500 ft
Scattered Clouds 7000 ft
Heat Index 99 °F
Dew Point 72 °F
Humidity 52%
Rainfall 0.00 in
Snow Depth Not available.
UV 8 out of 12
Pollen 2.30 out of 12
Air Quality Not available.
Flu Activity Not available.
METAR KLZZ 052035Z AUTO 17013G17KT 10SM SCT055 SCT070 33/22 A2999 RMK AO2 T03310220

More Conditions Fewer Conditions

10-Day Weather Forecast

×

Almanac

Astronomy

Jul. 05, 2015 Rise Set
Actual Time
Civil Twilight
Nautical Twilight
Astronomical Twilight
Moon
Length of Visible Light
Length of Day
Tomorrow will be .
, % of the Moon is Illuminated

Today's Extremes

State Highs State Lows

Community

WunderPhotos

Upload Photos

1,835,379 photos uploaded!

WunderBlogs® & News

Nearby

Air Quality

  Air Quality AQ Index Pollutant
Not available.

Snow Depth

Station Depth Elevation

Earthquake Activity

City Distance Mag. Time & Date
Minimum magnitude displayed is 2.5.

Coastal Water Temperatures

Place Temperature

Stations

Nearby Weather Stations

Station Location Temp. Windchill Dew Point Humidity Wind Precip. Elev Updated Type